sensor_id;sensor_type;location;lat;lon;timestamp;P1;durP1;ratioP1;P2;durP2;ratioP2
70126;SDS011;57491;42.694;23.314;2023-02-05T00:01:23;2.97;;;1.30;;
70126;SDS011;57491;42.694;23.314;2023-02-05T00:03:50;2.22;;;1.80;;
70126;SDS011;57491;42.694;23.314;2023-02-05T00:06:17;3.25;;;2.30;;
70126;SDS011;57491;42.694;23.314;2023-02-05T00:08:44;2.40;;;1.70;;
70126;SDS011;57491;42.694;23.314;2023-02-05T00:11:11;1.97;;;1.53;;
70126;SDS011;57491;42.694;23.314;2023-02-05T00:13:39;2.40;;;1.98;;
70126;SDS011;57491;42.694;23.314;2023-02-05T00:16:07;2.47;;;2.17;;
70126;SDS011;57491;42.694;23.314;2023-02-05T00:18:36;1.55;;;1.42;;
70126;SDS011;57491;42.694;23.314;2023-02-05T00:21:04;5.47;;;2.20;;
70126;SDS011;57491;42.694;23.314;2023-02-05T00:25:59;3.42;;;2.58;;
70126;SDS011;57491;42.694;23.314;2023-02-05T00:28:26;5.15;;;2.50;;
70126;SDS011;57491;42.694;23.314;2023-02-05T00:30:53;2.05;;;1.60;;
70126;SDS011;57491;42.694;23.314;2023-02-05T00:33:20;2.40;;;1.90;;
70126;SDS011;57491;42.694;23.314;2023-02-05T00:35:49;3.03;;;1.92;;
70126;SDS011;57491;42.694;23.314;2023-02-05T00:38:16;6.13;;;2.08;;
70126;SDS011;57491;42.694;23.314;2023-02-05T00:40:43;3.03;;;1.88;;
70126;SDS011;57491;42.694;23.314;2023-02-05T00:43:10;2.15;;;1.42;;
70126;SDS011;57491;42.694;23.314;2023-02-05T00:45:37;3.55;;;2.25;;
70126;SDS011;57491;42.694;23.314;2023-02-05T00:48:04;2.25;;;1.52;;
70126;SDS011;57491;42.694;23.314;2023-02-05T00:50:32;2.75;;;2.00;;
70126;SDS011;57491;42.694;23.314;2023-02-05T00:55:28;2.00;;;1.38;;
70126;SDS011;57491;42.694;23.314;2023-02-05T00:57:55;4.72;;;1.95;;
70126;SDS011;57491;42.694;23.314;2023-02-05T01:00:22;5.63;;;2.83;;
70126;SDS011;57491;42.694;23.314;2023-02-05T01:02:51;2.17;;;1.73;;
70126;SDS011;57491;42.694;23.314;2023-02-05T01:05:18;4.97;;;2.30;;
70126;SDS011;57491;42.694;23.314;2023-02-05T01:07:46;2.80;;;1.77;;
70126;SDS011;57491;42.694;23.314;2023-02-05T01:10:14;1.73;;;1.58;;
70126;SDS011;57491;42.694;23.314;2023-02-05T01:12:41;3.00;;;2.20;;
70126;SDS011;57491;42.694;23.314;2023-02-05T01:15:10;2.93;;;2.20;;
70126;SDS011;57491;42.694;23.314;2023-02-05T01:17:38;2.83;;;1.90;;
70126;SDS011;57491;42.694;23.314;2023-02-05T01:20:09;4.00;;;2.53;;
70126;SDS011;57491;42.694;23.314;2023-02-05T01:22:37;3.30;;;2.00;;
70126;SDS011;57491;42.694;23.314;2023-02-05T01:25:05;3.78;;;2.45;;
70126;SDS011;57491;42.694;23.314;2023-02-05T01:27:34;4.35;;;2.47;;
70126;SDS011;57491;42.694;23.314;2023-02-05T01:30:02;3.40;;;2.42;;
70126;SDS011;57491;42.694;23.314;2023-02-05T01:32:31;4.82;;;2.15;;
70126;SDS011;57491;42.694;23.314;2023-02-05T01:34:58;4.78;;;2.75;;
70126;SDS011;57491;42.694;23.314;2023-02-05T01:37:25;2.88;;;1.75;;
70126;SDS011;57491;42.694;23.314;2023-02-05T01:39:52;3.08;;;2.25;;
70126;SDS011;57491;42.694;23.314;2023-02-05T01:42:20;4.68;;;2.15;;
70126;SDS011;57491;42.694;23.314;2023-02-05T01:47:56;3.70;;;2.10;;
70126;SDS011;57491;42.694;23.314;2023-02-05T01:50:25;3.97;;;2.35;;
70126;SDS011;57491;42.694;23.314;2023-02-05T01:52:54;8.68;;;2.72;;
70126;SDS011;57491;42.694;23.314;2023-02-05T01:55:24;4.80;;;2.13;;
70126;SDS011;57491;42.694;23.314;2023-02-05T01:57:53;2.15;;;1.73;;
70126;SDS011;57491;42.694;23.314;2023-02-05T02:02:48;3.28;;;1.60;;
70126;SDS011;57491;42.694;23.314;2023-02-05T02:05:17;3.40;;;2.00;;
70126;SDS011;57491;42.694;23.314;2023-02-05T02:07:44;3.35;;;1.60;;
70126;SDS011;57491;42.694;23.314;2023-02-05T02:10:13;2.88;;;1.95;;
70126;SDS011;57491;42.694;23.314;2023-02-05T02:12:45;4.85;;;2.70;;
70126;SDS011;57491;42.694;23.314;2023-02-05T02:15:14;2.58;;;1.85;;
70126;SDS011;57491;42.694;23.314;2023-02-05T02:17:43;3.72;;;1.77;;
70126;SDS011;57491;42.694;23.314;2023-02-05T02:20:14;4.30;;;2.85;;
70126;SDS011;57491;42.694;23.314;2023-02-05T02:22:52;3.25;;;1.63;;
70126;SDS011;57491;42.694;23.314;2023-02-05T02:28:11;3.97;;;3.03;;
70126;SDS011;57491;42.694;23.314;2023-02-05T02:30:44;3.28;;;2.10;;
70126;SDS011;57491;42.694;23.314;2023-02-05T02:33:19;3.80;;;2.35;;
70126;SDS011;57491;42.694;23.314;2023-02-05T02:35:52;3.25;;;2.40;;
70126;SDS011;57491;42.694;23.314;2023-02-05T02:38:26;2.92;;;2.15;;
70126;SDS011;57491;42.694;23.314;2023-02-05T02:40:58;3.45;;;1.55;;
70126;SDS011;57491;42.694;23.314;2023-02-05T02:43:31;4.55;;;2.50;;
70126;SDS011;57491;42.694;23.314;2023-02-05T02:46:04;2.22;;;1.88;;
70126;SDS011;57491;42.694;23.314;2023-02-05T02:48:35;3.50;;;2.67;;
70126;SDS011;57491;42.694;23.314;2023-02-05T02:51:06;4.25;;;2.95;;
70126;SDS011;57491;42.694;23.314;2023-02-05T02:53:35;5.18;;;2.20;;
70126;SDS011;57491;42.694;23.314;2023-02-05T02:56:06;4.90;;;2.55;;
70126;SDS011;57491;42.694;23.314;2023-02-05T02:58:38;4.38;;;2.45;;
70126;SDS011;57491;42.694;23.314;2023-02-05T03:01:08;3.40;;;2.45;;
70126;SDS011;57491;42.694;23.314;2023-02-05T03:03:39;4.72;;;4.32;;
70126;SDS011;57491;42.694;23.314;2023-02-05T03:06:08;5.95;;;3.20;;
70126;SDS011;57491;42.694;23.314;2023-02-05T03:08:41;2.53;;;1.80;;
70126;SDS011;57491;42.694;23.314;2023-02-05T03:11:15;4.22;;;2.60;;
70126;SDS011;57491;42.694;23.314;2023-02-05T03:13:44;4.47;;;2.50;;
70126;SDS011;57491;42.694;23.314;2023-02-05T03:16:12;3.88;;;2.72;;
70126;SDS011;57491;42.694;23.314;2023-02-05T03:18:41;3.38;;;2.58;;
70126;SDS011;57491;42.694;23.314;2023-02-05T03:21:10;4.32;;;2.72;;
70126;SDS011;57491;42.694;23.314;2023-02-05T03:23:42;5.35;;;2.72;;
70126;SDS011;57491;42.694;23.314;2023-02-05T03:26:22;3.50;;;2.72;;
70126;SDS011;57491;42.694;23.314;2023-02-05T03:28:52;5.85;;;3.00;;
70126;SDS011;57491;42.694;23.314;2023-02-05T03:31:21;4.20;;;2.70;;
70126;SDS011;57491;42.694;23.314;2023-02-05T03:33:54;4.95;;;2.65;;
70126;SDS011;57491;42.694;23.314;2023-02-05T03:39:03;7.07;;;2.65;;
70126;SDS011;57491;42.694;23.314;2023-02-05T03:41:42;3.03;;;2.33;;
70126;SDS011;57491;42.694;23.314;2023-02-05T03:44:50;5.63;;;2.42;;
70126;SDS011;57491;42.694;23.314;2023-02-05T03:47:30;2.75;;;2.17;;
70126;SDS011;57491;42.694;23.314;2023-02-05T03:50:08;2.40;;;1.73;;
70126;SDS011;57491;42.694;23.314;2023-02-05T03:52:44;5.47;;;2.78;;
70126;SDS011;57491;42.694;23.314;2023-02-05T03:55:17;3.47;;;2.55;;
70126;SDS011;57491;42.694;23.314;2023-02-05T03:57:47;4.63;;;2.35;;
70126;SDS011;57491;42.694;23.314;2023-02-05T04:00:19;3.30;;;2.08;;
70126;SDS011;57491;42.694;23.314;2023-02-05T04:02:47;4.18;;;2.03;;
70126;SDS011;57491;42.694;23.314;2023-02-05T04:05:14;3.17;;;2.17;;
70126;SDS011;57491;42.694;23.314;2023-02-05T04:07:41;4.90;;;2.70;;
70126;SDS011;57491;42.694;23.314;2023-02-05T04:10:09;2.47;;;1.63;;
70126;SDS011;57491;42.694;23.314;2023-02-05T04:12:36;2.95;;;2.03;;
70126;SDS011;57491;42.694;23.314;2023-02-05T04:15:03;3.50;;;2.37;;
70126;SDS011;57491;42.694;23.314;2023-02-05T04:17:34;2.58;;;1.83;;
70126;SDS011;57491;42.694;23.314;2023-02-05T04:20:02;6.13;;;3.42;;
70126;SDS011;57491;42.694;23.314;2023-02-05T04:22:29;7.78;;;3.50;;
70126;SDS011;57491;42.694;23.314;2023-02-05T04:24:56;5.40;;;3.45;;
70126;SDS011;57491;42.694;23.314;2023-02-05T04:27:23;5.13;;;3.15;;
70126;SDS011;57491;42.694;23.314;2023-02-05T04:29:50;4.93;;;2.30;;
70126;SDS011;57491;42.694;23.314;2023-02-05T04:32:17;6.10;;;2.50;;
70126;SDS011;57491;42.694;23.314;2023-02-05T04:34:46;4.68;;;2.60;;
70126;SDS011;57491;42.694;23.314;2023-02-05T04:37:13;2.35;;;1.88;;
70126;SDS011;57491;42.694;23.314;2023-02-05T04:39:40;4.53;;;2.37;;
70126;SDS011;57491;42.694;23.314;2023-02-05T04:42:07;3.78;;;2.28;;
70126;SDS011;57491;42.694;23.314;2023-02-05T04:44:34;4.83;;;2.00;;
70126;SDS011;57491;42.694;23.314;2023-02-05T04:47:01;2.63;;;1.92;;
70126;SDS011;57491;42.694;23.314;2023-02-05T04:49:30;3.30;;;2.05;;
70126;SDS011;57491;42.694;23.314;2023-02-05T04:51:58;4.20;;;2.35;;
70126;SDS011;57491;42.694;23.314;2023-02-05T04:54:26;4.25;;;2.58;;
70126;SDS011;57491;42.694;23.314;2023-02-05T04:56:53;3.80;;;1.73;;
70126;SDS011;57491;42.694;23.314;2023-02-05T04:59:20;4.70;;;2.78;;
70126;SDS011;57491;42.694;23.314;2023-02-05T05:01:47;6.07;;;2.93;;
70126;SDS011;57491;42.694;23.314;2023-02-05T05:04:14;5.80;;;2.60;;
70126;SDS011;57491;42.694;23.314;2023-02-05T05:06:41;2.85;;;2.40;;
70126;SDS011;57491;42.694;23.314;2023-02-05T05:09:10;3.28;;;2.47;;
70126;SDS011;57491;42.694;23.314;2023-02-05T05:11:37;3.92;;;2.35;;
70126;SDS011;57491;42.694;23.314;2023-02-05T05:14:05;4.13;;;2.47;;
70126;SDS011;57491;42.694;23.314;2023-02-05T05:16:32;1.70;;;1.47;;
70126;SDS011;57491;42.694;23.314;2023-02-05T05:18:59;5.72;;;2.50;;
70126;SDS011;57491;42.694;23.314;2023-02-05T05:21:26;5.07;;;2.85;;
70126;SDS011;57491;42.694;23.314;2023-02-05T05:23:53;5.13;;;2.47;;
70126;SDS011;57491;42.694;23.314;2023-02-05T05:26:21;11.60;;;2.43;;
70126;SDS011;57491;42.694;23.314;2023-02-05T05:28:51;2.88;;;1.90;;
70126;SDS011;57491;42.694;23.314;2023-02-05T05:31:19;3.42;;;2.15;;
70126;SDS011;57491;42.694;23.314;2023-02-05T05:33:47;5.30;;;2.65;;
70126;SDS011;57491;42.694;23.314;2023-02-05T05:36:14;4.77;;;2.80;;
70126;SDS011;57491;42.694;23.314;2023-02-05T05:38:41;3.03;;;2.03;;
70126;SDS011;57491;42.694;23.314;2023-02-05T05:41:09;3.15;;;2.20;;
70126;SDS011;57491;42.694;23.314;2023-02-05T05:46:25;3.35;;;2.10;;
70126;SDS011;57491;42.694;23.314;2023-02-05T05:48:52;5.35;;;2.45;;
70126;SDS011;57491;42.694;23.314;2023-02-05T05:51:21;3.67;;;2.45;;
70126;SDS011;57491;42.694;23.314;2023-02-05T05:53:49;4.80;;;2.60;;
70126;SDS011;57491;42.694;23.314;2023-02-05T05:56:16;4.13;;;2.27;;
70126;SDS011;57491;42.694;23.314;2023-02-05T05:58:44;2.85;;;1.95;;
70126;SDS011;57491;42.694;23.314;2023-02-05T06:01:14;5.13;;;2.42;;
70126;SDS011;57491;42.694;23.314;2023-02-05T06:03:44;2.78;;;2.00;;
70126;SDS011;57491;42.694;23.314;2023-02-05T06:06:11;4.28;;;2.60;;
70126;SDS011;57491;42.694;23.314;2023-02-05T06:08:38;5.25;;;2.45;;
70126;SDS011;57491;42.694;23.314;2023-02-05T06:11:06;7.70;;;2.33;;
70126;SDS011;57491;42.694;23.314;2023-02-05T06:13:33;4.70;;;2.95;;
70126;SDS011;57491;42.694;23.314;2023-02-05T06:16:00;3.33;;;2.55;;
70126;SDS011;57491;42.694;23.314;2023-02-05T06:18:29;5.45;;;3.08;;
70126;SDS011;57491;42.694;23.314;2023-02-05T06:20:56;4.60;;;2.85;;
70126;SDS011;57491;42.694;23.314;2023-02-05T06:23:23;3.45;;;2.45;;
70126;SDS011;57491;42.694;23.314;2023-02-05T06:25:50;5.00;;;3.27;;
70126;SDS011;57491;42.694;23.314;2023-02-05T06:28:17;6.63;;;2.58;;
70126;SDS011;57491;42.694;23.314;2023-02-05T06:30:45;6.43;;;2.87;;
70126;SDS011;57491;42.694;23.314;2023-02-05T06:33:12;2.93;;;2.27;;
70126;SDS011;57491;42.694;23.314;2023-02-05T06:35:40;4.20;;;2.42;;
70126;SDS011;57491;42.694;23.314;2023-02-05T06:38:08;4.43;;;3.20;;
70126;SDS011;57491;42.694;23.314;2023-02-05T06:40:35;4.30;;;2.57;;
70126;SDS011;57491;42.694;23.314;2023-02-05T06:43:02;6.50;;;2.60;;
70126;SDS011;57491;42.694;23.314;2023-02-05T06:45:29;5.13;;;2.87;;
70126;SDS011;57491;42.694;23.314;2023-02-05T06:47:56;4.07;;;2.80;;
70126;SDS011;57491;42.694;23.314;2023-02-05T06:50:23;2.90;;;1.90;;
70126;SDS011;57491;42.694;23.314;2023-02-05T06:52:52;2.90;;;2.30;;
70126;SDS011;57491;42.694;23.314;2023-02-05T06:55:19;4.65;;;2.72;;
70126;SDS011;57491;42.694;23.314;2023-02-05T06:57:46;4.53;;;2.60;;
70126;SDS011;57491;42.694;23.314;2023-02-05T07:00:14;5.40;;;2.57;;
70126;SDS011;57491;42.694;23.314;2023-02-05T07:02:42;6.30;;;2.70;;
70126;SDS011;57491;42.694;23.314;2023-02-05T07:05:09;3.30;;;2.20;;
70126;SDS011;57491;42.694;23.314;2023-02-05T07:07:36;5.75;;;3.63;;
70126;SDS011;57491;42.694;23.314;2023-02-05T07:10:06;3.78;;;2.65;;
70126;SDS011;57491;42.694;23.314;2023-02-05T07:12:33;5.68;;;2.70;;
70126;SDS011;57491;42.694;23.314;2023-02-05T07:15:00;5.80;;;2.57;;
70126;SDS011;57491;42.694;23.314;2023-02-05T07:17:27;4.97;;;3.22;;
70126;SDS011;57491;42.694;23.314;2023-02-05T07:19:54;12.70;;;5.63;;
70126;SDS011;57491;42.694;23.314;2023-02-05T07:22:23;5.30;;;3.42;;
70126;SDS011;57491;42.694;23.314;2023-02-05T07:24:50;4.77;;;3.03;;
70126;SDS011;57491;42.694;23.314;2023-02-05T07:27:18;5.95;;;3.88;;
70126;SDS011;57491;42.694;23.314;2023-02-05T07:29:45;5.57;;;3.00;;
70126;SDS011;57491;42.694;23.314;2023-02-05T07:32:12;4.28;;;2.88;;
70126;SDS011;57491;42.694;23.314;2023-02-05T07:34:39;3.95;;;2.72;;
70126;SDS011;57491;42.694;23.314;2023-02-05T07:37:09;4.75;;;3.25;;
70126;SDS011;57491;42.694;23.314;2023-02-05T07:39:36;6.10;;;3.60;;
70126;SDS011;57491;42.694;23.314;2023-02-05T07:42:04;5.90;;;2.63;;
70126;SDS011;57491;42.694;23.314;2023-02-05T07:44:32;7.45;;;3.00;;
70126;SDS011;57491;42.694;23.314;2023-02-05T07:47:00;4.60;;;3.08;;
70126;SDS011;57491;42.694;23.314;2023-02-05T07:49:27;5.63;;;3.50;;
70126;SDS011;57491;42.694;23.314;2023-02-05T07:51:54;7.55;;;3.78;;
70126;SDS011;57491;42.694;23.314;2023-02-05T07:54:21;9.20;;;5.93;;
70126;SDS011;57491;42.694;23.314;2023-02-05T07:56:49;6.38;;;3.95;;
70126;SDS011;57491;42.694;23.314;2023-02-05T07:59:16;6.22;;;4.20;;
70126;SDS011;57491;42.694;23.314;2023-02-05T08:01:44;15.40;;;6.75;;
70126;SDS011;57491;42.694;23.314;2023-02-05T08:04:11;7.88;;;3.67;;
70126;SDS011;57491;42.694;23.314;2023-02-05T08:06:38;6.30;;;4.13;;
70126;SDS011;57491;42.694;23.314;2023-02-05T08:09:05;4.53;;;3.17;;
70126;SDS011;57491;42.694;23.314;2023-02-05T08:11:32;6.05;;;3.78;;
70126;SDS011;57491;42.694;23.314;2023-02-05T08:13:59;8.27;;;3.95;;
70126;SDS011;57491;42.694;23.314;2023-02-05T08:16:27;5.35;;;3.80;;
70126;SDS011;57491;42.694;23.314;2023-02-05T08:18:56;6.38;;;3.75;;
70126;SDS011;57491;42.694;23.314;2023-02-05T08:21:24;4.60;;;3.30;;
70126;SDS011;57491;42.694;23.314;2023-02-05T08:23:51;5.40;;;3.35;;
70126;SDS011;57491;42.694;23.314;2023-02-05T08:26:18;5.88;;;3.35;;
70126;SDS011;57491;42.694;23.314;2023-02-05T08:28:45;6.40;;;3.97;;
70126;SDS011;57491;42.694;23.314;2023-02-05T08:31:14;9.37;;;4.57;;
70126;SDS011;57491;42.694;23.314;2023-02-05T08:33:43;6.55;;;3.38;;
70126;SDS011;57491;42.694;23.314;2023-02-05T08:36:13;7.07;;;3.67;;
70126;SDS011;57491;42.694;23.314;2023-02-05T08:38:40;5.38;;;3.20;;
70126;SDS011;57491;42.694;23.314;2023-02-05T08:41:08;5.30;;;3.67;;
70126;SDS011;57491;42.694;23.314;2023-02-05T08:43:39;4.88;;;2.60;;
70126;SDS011;57491;42.694;23.314;2023-02-05T08:46:07;3.45;;;2.22;;
70126;SDS011;57491;42.694;23.314;2023-02-05T08:48:35;3.60;;;2.28;;
70126;SDS011;57491;42.694;23.314;2023-02-05T08:51:02;3.30;;;2.45;;
70126;SDS011;57491;42.694;23.314;2023-02-05T08:53:33;4.10;;;2.20;;
70126;SDS011;57491;42.694;23.314;2023-02-05T08:56:01;2.45;;;2.13;;
70126;SDS011;57491;42.694;23.314;2023-02-05T08:58:30;2.30;;;1.73;;
70126;SDS011;57491;42.694;23.314;2023-02-05T09:00:59;5.28;;;2.30;;
70126;SDS011;57491;42.694;23.314;2023-02-05T09:03:27;3.47;;;2.40;;
70126;SDS011;57491;42.694;23.314;2023-02-05T09:05:55;3.92;;;2.20;;
70126;SDS011;57491;42.694;23.314;2023-02-05T09:08:23;4.95;;;2.47;;
70126;SDS011;57491;42.694;23.314;2023-02-05T09:10:52;3.05;;;1.80;;
70126;SDS011;57491;42.694;23.314;2023-02-05T09:13:19;4.50;;;2.28;;
70126;SDS011;57491;42.694;23.314;2023-02-05T09:15:46;3.65;;;1.90;;
70126;SDS011;57491;42.694;23.314;2023-02-05T09:18:14;2.40;;;1.75;;
70126;SDS011;57491;42.694;23.314;2023-02-05T09:20:42;5.10;;;1.95;;
70126;SDS011;57491;42.694;23.314;2023-02-05T09:23:11;4.03;;;2.20;;
70126;SDS011;57491;42.694;23.314;2023-02-05T09:25:39;3.63;;;2.20;;
70126;SDS011;57491;42.694;23.314;2023-02-05T09:30:36;3.08;;;2.10;;
70126;SDS011;57491;42.694;23.314;2023-02-05T09:33:04;3.20;;;2.03;;
70126;SDS011;57491;42.694;23.314;2023-02-05T09:35:31;4.22;;;2.35;;
70126;SDS011;57491;42.694;23.314;2023-02-05T09:37:59;3.25;;;1.90;;
70126;SDS011;57491;42.694;23.314;2023-02-05T09:40:29;4.65;;;2.90;;
70126;SDS011;57491;42.694;23.314;2023-02-05T09:43:02;3.15;;;2.13;;
70126;SDS011;57491;42.694;23.314;2023-02-05T09:45:45;4.80;;;2.47;;
70126;SDS011;57491;42.694;23.314;2023-02-05T09:51:15;2.92;;;1.85;;
70126;SDS011;57491;42.694;23.314;2023-02-05T09:53:45;4.50;;;2.22;;
70126;SDS011;57491;42.694;23.314;2023-02-05T09:56:16;2.88;;;1.80;;
70126;SDS011;57491;42.694;23.314;2023-02-05T09:58:45;3.83;;;2.35;;
70126;SDS011;57491;42.694;23.314;2023-02-05T10:01:17;3.03;;;1.90;;
70126;SDS011;57491;42.694;23.314;2023-02-05T10:03:49;3.47;;;1.88;;
70126;SDS011;57491;42.694;23.314;2023-02-05T10:09:37;3.63;;;2.40;;
70126;SDS011;57491;42.694;23.314;2023-02-05T10:12:21;3.88;;;2.60;;
70126;SDS011;57491;42.694;23.314;2023-02-05T10:15:02;3.50;;;2.17;;
70126;SDS011;57491;42.694;23.314;2023-02-05T10:17:45;3.95;;;2.40;;
70126;SDS011;57491;42.694;23.314;2023-02-05T10:20:24;3.33;;;2.42;;
70126;SDS011;57491;42.694;23.314;2023-02-05T10:23:01;6.13;;;2.60;;
70126;SDS011;57491;42.694;23.314;2023-02-05T10:25:52;6.75;;;3.38;;
70126;SDS011;57491;42.694;23.314;2023-02-05T10:34:03;5.78;;;2.05;;
70126;SDS011;57491;42.694;23.314;2023-02-05T10:36:42;4.60;;;2.00;;
70126;SDS011;57491;42.694;23.314;2023-02-05T10:39:12;3.53;;;2.60;;
70126;SDS011;57491;42.694;23.314;2023-02-05T10:41:41;2.33;;;1.70;;
70126;SDS011;57491;42.694;23.314;2023-02-05T10:44:15;2.10;;;1.70;;
70126;SDS011;57491;42.694;23.314;2023-02-05T10:46:52;3.45;;;2.00;;
70126;SDS011;57491;42.694;23.314;2023-02-05T10:49:31;3.20;;;1.85;;
70126;SDS011;57491;42.694;23.314;2023-02-05T10:52:09;4.20;;;2.00;;
70126;SDS011;57491;42.694;23.314;2023-02-05T10:54:38;2.58;;;1.88;;
70126;SDS011;57491;42.694;23.314;2023-02-05T10:57:10;4.28;;;2.00;;
70126;SDS011;57491;42.694;23.314;2023-02-05T10:59:40;4.68;;;2.35;;
70126;SDS011;57491;42.694;23.314;2023-02-05T11:02:17;3.85;;;2.35;;
70126;SDS011;57491;42.694;23.314;2023-02-05T11:04:47;3.35;;;1.95;;
70126;SDS011;57491;42.694;23.314;2023-02-05T11:07:20;2.88;;;1.90;;
70126;SDS011;57491;42.694;23.314;2023-02-05T11:09:51;7.95;;;1.67;;
70126;SDS011;57491;42.694;23.314;2023-02-05T11:12:21;3.80;;;2.00;;
70126;SDS011;57491;42.694;23.314;2023-02-05T11:14:57;4.35;;;1.85;;
70126;SDS011;57491;42.694;23.314;2023-02-05T11:17:29;4.05;;;1.98;;
70126;SDS011;57491;42.694;23.314;2023-02-05T11:20:03;3.13;;;2.28;;
70126;SDS011;57491;42.694;23.314;2023-02-05T11:22:34;4.05;;;2.70;;
70126;SDS011;57491;42.694;23.314;2023-02-05T11:25:05;3.67;;;2.40;;
70126;SDS011;57491;42.694;23.314;2023-02-05T11:27:36;3.63;;;1.58;;
70126;SDS011;57491;42.694;23.314;2023-02-05T11:30:16;2.83;;;1.50;;
70126;SDS011;57491;42.694;23.314;2023-02-05T11:32:47;2.88;;;1.90;;
70126;SDS011;57491;42.694;23.314;2023-02-05T11:35:17;4.30;;;2.30;;
70126;SDS011;57491;42.694;23.314;2023-02-05T11:37:48;2.15;;;1.60;;
70126;SDS011;57491;42.694;23.314;2023-02-05T11:40:27;3.97;;;2.28;;
70126;SDS011;57491;42.694;23.314;2023-02-05T11:42:57;2.97;;;1.55;;
70126;SDS011;57491;42.694;23.314;2023-02-05T11:45:28;2.28;;;1.70;;
70126;SDS011;57491;42.694;23.314;2023-02-05T11:47:57;2.90;;;1.55;;
70126;SDS011;57491;42.694;23.314;2023-02-05T11:50:29;3.05;;;2.13;;
70126;SDS011;57491;42.694;23.314;2023-02-05T11:53:04;3.53;;;1.92;;
70126;SDS011;57491;42.694;23.314;2023-02-05T11:55:38;3.17;;;1.92;;
70126;SDS011;57491;42.694;23.314;2023-02-05T11:58:15;2.88;;;1.98;;
70126;SDS011;57491;42.694;23.314;2023-02-05T12:00:52;3.28;;;1.77;;
70126;SDS011;57491;42.694;23.314;2023-02-05T12:03:22;3.15;;;1.75;;
70126;SDS011;57491;42.694;23.314;2023-02-05T12:05:57;3.55;;;2.20;;
70126;SDS011;57491;42.694;23.314;2023-02-05T12:08:33;1.70;;;1.48;;
70126;SDS011;57491;42.694;23.314;2023-02-05T12:11:10;2.85;;;2.40;;
70126;SDS011;57491;42.694;23.314;2023-02-05T12:13:52;3.03;;;1.98;;
70126;SDS011;57491;42.694;23.314;2023-02-05T12:16:33;2.65;;;2.22;;
70126;SDS011;57491;42.694;23.314;2023-02-05T12:19:12;5.15;;;2.42;;
70126;SDS011;57491;42.694;23.314;2023-02-05T12:21:47;2.30;;;1.90;;
70126;SDS011;57491;42.694;23.314;2023-02-05T12:24:27;3.38;;;2.50;;
70126;SDS011;57491;42.694;23.314;2023-02-05T12:27:14;4.45;;;2.65;;
70126;SDS011;57491;42.694;23.314;2023-02-05T12:30:01;2.83;;;2.30;;
70126;SDS011;57491;42.694;23.314;2023-02-05T12:32:37;3.60;;;2.20;;
70126;SDS011;57491;42.694;23.314;2023-02-05T12:35:18;5.18;;;2.83;;
70126;SDS011;57491;42.694;23.314;2023-02-05T12:38:03;5.00;;;3.40;;
70126;SDS011;57491;42.694;23.314;2023-02-05T12:40:43;7.82;;;4.00;;
70126;SDS011;57491;42.694;23.314;2023-02-05T12:43:28;4.82;;;3.47;;
70126;SDS011;57491;42.694;23.314;2023-02-05T12:46:05;5.13;;;3.75;;
70126;SDS011;57491;42.694;23.314;2023-02-05T12:48:48;3.38;;;2.67;;
70126;SDS011;57491;42.694;23.314;2023-02-05T12:51:26;4.22;;;2.63;;
70126;SDS011;57491;42.694;23.314;2023-02-05T12:54:10;4.88;;;2.40;;
70126;SDS011;57491;42.694;23.314;2023-02-05T12:56:57;5.03;;;3.00;;
70126;SDS011;57491;42.694;23.314;2023-02-05T12:59:29;3.95;;;2.80;;
70126;SDS011;57491;42.694;23.314;2023-02-05T13:02:06;4.75;;;2.95;;
70126;SDS011;57491;42.694;23.314;2023-02-05T13:04:42;3.80;;;3.03;;
70126;SDS011;57491;42.694;23.314;2023-02-05T13:07:15;7.82;;;4.85;;
70126;SDS011;57491;42.694;23.314;2023-02-05T13:09:54;8.00;;;4.22;;
70126;SDS011;57491;42.694;23.314;2023-02-05T13:12:26;5.55;;;3.30;;
70126;SDS011;57491;42.694;23.314;2023-02-05T13:15:01;4.82;;;3.22;;
70126;SDS011;57491;42.694;23.314;2023-02-05T13:17:37;6.88;;;3.38;;
70126;SDS011;57491;42.694;23.314;2023-02-05T13:20:13;6.00;;;3.58;;
70126;SDS011;57491;42.694;23.314;2023-02-05T13:22:47;7.32;;;3.80;;
70126;SDS011;57491;42.694;23.314;2023-02-05T13:25:40;5.95;;;3.65;;
70126;SDS011;57491;42.694;23.314;2023-02-05T13:28:30;7.22;;;3.45;;
70126;SDS011;57491;42.694;23.314;2023-02-05T13:31:09;7.57;;;3.50;;
70126;SDS011;57491;42.694;23.314;2023-02-05T13:33:45;6.60;;;5.15;;
70126;SDS011;57491;42.694;23.314;2023-02-05T13:36:20;3.65;;;3.13;;
70126;SDS011;57491;42.694;23.314;2023-02-05T13:39:29;5.72;;;3.22;;
70126;SDS011;57491;42.694;23.314;2023-02-05T13:42:30;8.40;;;4.65;;
70126;SDS011;57491;42.694;23.314;2023-02-05T13:45:34;9.27;;;5.20;;
70126;SDS011;57491;42.694;23.314;2023-02-05T13:48:24;8.75;;;5.32;;
70126;SDS011;57491;42.694;23.314;2023-02-05T13:51:08;8.02;;;4.95;;
70126;SDS011;57491;42.694;23.314;2023-02-05T13:53:56;4.68;;;3.90;;
70126;SDS011;57491;42.694;23.314;2023-02-05T13:56:42;7.88;;;3.72;;
70126;SDS011;57491;42.694;23.314;2023-02-05T13:59:16;7.85;;;4.60;;
70126;SDS011;57491;42.694;23.314;2023-02-05T14:01:50;6.53;;;4.60;;
70126;SDS011;57491;42.694;23.314;2023-02-05T14:04:22;10.10;;;5.03;;
70126;SDS011;57491;42.694;23.314;2023-02-05T14:06:56;10.25;;;5.47;;
70126;SDS011;57491;42.694;23.314;2023-02-05T14:09:29;7.25;;;4.60;;
70126;SDS011;57491;42.694;23.314;2023-02-05T14:12:02;5.13;;;3.53;;
70126;SDS011;57491;42.694;23.314;2023-02-05T14:14:33;7.03;;;4.97;;
70126;SDS011;57491;42.694;23.314;2023-02-05T14:17:01;7.07;;;5.07;;
70126;SDS011;57491;42.694;23.314;2023-02-05T14:22:36;8.63;;;5.03;;
70126;SDS011;57491;42.694;23.314;2023-02-05T14:28:33;7.32;;;4.88;;
70126;SDS011;57491;42.694;23.314;2023-02-05T14:34:42;8.10;;;5.28;;
70126;SDS011;57491;42.694;23.314;2023-02-05T14:37:24;7.80;;;5.28;;
70126;SDS011;57491;42.694;23.314;2023-02-05T14:39:56;10.20;;;5.43;;
70126;SDS011;57491;42.694;23.314;2023-02-05T14:42:24;10.93;;;4.82;;
70126;SDS011;57491;42.694;23.314;2023-02-05T14:44:54;8.63;;;5.35;;
70126;SDS011;57491;42.694;23.314;2023-02-05T14:47:24;9.90;;;5.18;;
70126;SDS011;57491;42.694;23.314;2023-02-05T14:49:58;5.88;;;4.25;;
70126;SDS011;57491;42.694;23.314;2023-02-05T14:52:32;7.53;;;4.03;;
70126;SDS011;57491;42.694;23.314;2023-02-05T14:55:03;7.38;;;4.78;;
70126;SDS011;57491;42.694;23.314;2023-02-05T14:57:38;6.93;;;4.47;;
70126;SDS011;57491;42.694;23.314;2023-02-05T15:00:20;7.20;;;4.88;;
70126;SDS011;57491;42.694;23.314;2023-02-05T15:05:52;8.90;;;4.57;;
70126;SDS011;57491;42.694;23.314;2023-02-05T15:11:10;4.35;;;3.17;;
70126;SDS011;57491;42.694;23.314;2023-02-05T15:13:41;6.65;;;4.68;;
70126;SDS011;57491;42.694;23.314;2023-02-05T15:16:28;7.70;;;5.00;;
70126;SDS011;57491;42.694;23.314;2023-02-05T15:18:56;5.70;;;3.93;;
70126;SDS011;57491;42.694;23.314;2023-02-05T15:21:27;7.53;;;5.00;;
70126;SDS011;57491;42.694;23.314;2023-02-05T15:23:58;7.00;;;4.45;;
70126;SDS011;57491;42.694;23.314;2023-02-05T15:26:29;7.22;;;4.47;;
70126;SDS011;57491;42.694;23.314;2023-02-05T15:29:05;7.10;;;5.25;;
70126;SDS011;57491;42.694;23.314;2023-02-05T15:31:39;10.30;;;4.95;;
70126;SDS011;57491;42.694;23.314;2023-02-05T15:34:19;7.20;;;4.30;;
70126;SDS011;57491;42.694;23.314;2023-02-05T15:36:55;8.45;;;5.28;;
70126;SDS011;57491;42.694;23.314;2023-02-05T15:39:28;7.43;;;5.20;;
70126;SDS011;57491;42.694;23.314;2023-02-05T15:42:00;5.68;;;4.15;;
70126;SDS011;57491;42.694;23.314;2023-02-05T15:44:31;5.60;;;4.30;;
70126;SDS011;57491;42.694;23.314;2023-02-05T15:46:59;9.52;;;5.20;;